sensor_id;sensor_type;location;lat;lon;timestamp;P1;durP1;ratioP1;P2;durP2;ratioP2
75426;SDS011;64007;50.632;13.700;2023-09-18T00:00:04;6.18;;;2.60;;
75426;SDS011;64007;50.632;13.700;2023-09-18T00:02:57;3.65;;;2.33;;
75426;SDS011;64007;50.632;13.700;2023-09-18T00:05:22;6.10;;;2.60;;
75426;SDS011;64007;50.632;13.700;2023-09-18T00:07:48;3.28;;;2.42;;
75426;SDS011;64007;50.632;13.700;2023-09-18T00:10:14;3.45;;;2.63;;
75426;SDS011;64007;50.632;13.700;2023-09-18T00:12:39;4.45;;;2.50;;
75426;SDS011;64007;50.632;13.700;2023-09-18T00:15:06;7.90;;;2.63;;
75426;SDS011;64007;50.632;13.700;2023-09-18T00:17:34;5.45;;;2.88;;
75426;SDS011;64007;50.632;13.700;2023-09-18T00:20:01;7.03;;;2.90;;
75426;SDS011;64007;50.632;13.700;2023-09-18T00:22:26;5.00;;;3.03;;
75426;SDS011;64007;50.632;13.700;2023-09-18T00:24:53;4.18;;;2.70;;
75426;SDS011;64007;50.632;13.700;2023-09-18T00:27:19;4.45;;;3.28;;
75426;SDS011;64007;50.632;13.700;2023-09-18T00:29:45;3.58;;;2.80;;
75426;SDS011;64007;50.632;13.700;2023-09-18T00:32:10;4.88;;;3.03;;
75426;SDS011;64007;50.632;13.700;2023-09-18T00:34:36;9.00;;;3.15;;
75426;SDS011;64007;50.632;13.700;2023-09-18T00:37:02;4.72;;;3.10;;
75426;SDS011;64007;50.632;13.700;2023-09-18T00:39:28;4.40;;;2.90;;
75426;SDS011;64007;50.632;13.700;2023-09-18T00:41:53;3.95;;;2.65;;
75426;SDS011;64007;50.632;13.700;2023-09-18T00:44:20;5.40;;;2.83;;
75426;SDS011;64007;50.632;13.700;2023-09-18T00:46:47;6.88;;;3.30;;
75426;SDS011;64007;50.632;13.700;2023-09-18T00:49:14;4.45;;;3.00;;
75426;SDS011;64007;50.632;13.700;2023-09-18T00:51:40;4.93;;;3.10;;
75426;SDS011;64007;50.632;13.700;2023-09-18T00:54:07;11.30;;;3.10;;
75426;SDS011;64007;50.632;13.700;2023-09-18T00:56:33;4.88;;;2.83;;
75426;SDS011;64007;50.632;13.700;2023-09-18T00:59:00;4.45;;;3.10;;
75426;SDS011;64007;50.632;13.700;2023-09-18T01:01:26;4.82;;;3.22;;
75426;SDS011;64007;50.632;13.700;2023-09-18T01:03:53;5.35;;;3.08;;
75426;SDS011;64007;50.632;13.700;2023-09-18T01:06:18;6.00;;;2.90;;
75426;SDS011;64007;50.632;13.700;2023-09-18T01:08:47;9.85;;;3.08;;
75426;SDS011;64007;50.632;13.700;2023-09-18T01:11:35;4.30;;;3.15;;
75426;SDS011;64007;50.632;13.700;2023-09-18T01:16:50;8.80;;;2.70;;
75426;SDS011;64007;50.632;13.700;2023-09-18T01:19:35;8.77;;;3.33;;
75426;SDS011;64007;50.632;13.700;2023-09-18T01:24:28;5.43;;;3.20;;
75426;SDS011;64007;50.632;13.700;2023-09-18T01:26:54;8.05;;;3.00;;
75426;SDS011;64007;50.632;13.700;2023-09-18T01:29:19;5.60;;;3.53;;
75426;SDS011;64007;50.632;13.700;2023-09-18T01:31:45;5.45;;;3.47;;
75426;SDS011;64007;50.632;13.700;2023-09-18T01:34:16;4.82;;;2.90;;
75426;SDS011;64007;50.632;13.700;2023-09-18T01:36:44;6.68;;;3.30;;
75426;SDS011;64007;50.632;13.700;2023-09-18T01:39:11;4.28;;;3.05;;
75426;SDS011;64007;50.632;13.700;2023-09-18T01:41:37;5.35;;;3.45;;
75426;SDS011;64007;50.632;13.700;2023-09-18T01:44:04;8.55;;;3.30;;
75426;SDS011;64007;50.632;13.700;2023-09-18T01:46:31;4.57;;;3.20;;
75426;SDS011;64007;50.632;13.700;2023-09-18T01:49:02;5.57;;;3.10;;
75426;SDS011;64007;50.632;13.700;2023-09-18T01:51:28;5.07;;;3.55;;
75426;SDS011;64007;50.632;13.700;2023-09-18T01:53:55;6.72;;;3.50;;
75426;SDS011;64007;50.632;13.700;2023-09-18T01:56:21;4.10;;;3.00;;
75426;SDS011;64007;50.632;13.700;2023-09-18T01:58:49;4.60;;;3.42;;
75426;SDS011;64007;50.632;13.700;2023-09-18T02:01:14;4.18;;;3.25;;
75426;SDS011;64007;50.632;13.700;2023-09-18T02:03:40;5.43;;;4.07;;
75426;SDS011;64007;50.632;13.700;2023-09-18T02:06:09;4.93;;;3.33;;
75426;SDS011;64007;50.632;13.700;2023-09-18T02:08:35;6.80;;;3.60;;
75426;SDS011;64007;50.632;13.700;2023-09-18T02:11:01;4.93;;;3.40;;
75426;SDS011;64007;50.632;13.700;2023-09-18T02:13:28;4.00;;;3.33;;
75426;SDS011;64007;50.632;13.700;2023-09-18T02:15:54;8.10;;;3.80;;
75426;SDS011;64007;50.632;13.700;2023-09-18T02:18:21;6.32;;;3.92;;
75426;SDS011;64007;50.632;13.700;2023-09-18T02:20:46;4.28;;;3.20;;
75426;SDS011;64007;50.632;13.700;2023-09-18T02:23:17;5.03;;;3.65;;
75426;SDS011;64007;50.632;13.700;2023-09-18T02:25:43;5.28;;;3.40;;
75426;SDS011;64007;50.632;13.700;2023-09-18T02:28:09;5.82;;;3.67;;
75426;SDS011;64007;50.632;13.700;2023-09-18T02:30:35;8.45;;;3.80;;
75426;SDS011;64007;50.632;13.700;2023-09-18T02:33:01;5.50;;;3.70;;
75426;SDS011;64007;50.632;13.700;2023-09-18T02:35:28;5.95;;;3.70;;
75426;SDS011;64007;50.632;13.700;2023-09-18T02:37:55;4.50;;;3.63;;
75426;SDS011;64007;50.632;13.700;2023-09-18T02:40:20;26.83;;;5.43;;
75426;SDS011;64007;50.632;13.700;2023-09-18T02:42:46;6.65;;;3.67;;
75426;SDS011;64007;50.632;13.700;2023-09-18T02:45:12;5.35;;;3.50;;
75426;SDS011;64007;50.632;13.700;2023-09-18T02:47:38;6.35;;;3.40;;
75426;SDS011;64007;50.632;13.700;2023-09-18T02:50:06;6.75;;;3.50;;
75426;SDS011;64007;50.632;13.700;2023-09-18T02:52:32;6.05;;;3.60;;
75426;SDS011;64007;50.632;13.700;2023-09-18T02:54:58;6.55;;;3.63;;
75426;SDS011;64007;50.632;13.700;2023-09-18T02:57:24;6.95;;;3.80;;
75426;SDS011;64007;50.632;13.700;2023-09-18T02:59:49;5.13;;;3.40;;
75426;SDS011;64007;50.632;13.700;2023-09-18T03:02:15;3.75;;;3.35;;
75426;SDS011;64007;50.632;13.700;2023-09-18T03:04:41;6.20;;;4.10;;
75426;SDS011;64007;50.632;13.700;2023-09-18T03:07:07;8.55;;;3.83;;
75426;SDS011;64007;50.632;13.700;2023-09-18T03:09:32;5.88;;;3.92;;
75426;SDS011;64007;50.632;13.700;2023-09-18T03:11:58;12.18;;;4.40;;
75426;SDS011;64007;50.632;13.700;2023-09-18T03:14:23;5.88;;;3.88;;
75426;SDS011;64007;50.632;13.700;2023-09-18T03:16:49;5.93;;;3.40;;
75426;SDS011;64007;50.632;13.700;2023-09-18T03:19:15;5.55;;;4.00;;
75426;SDS011;64007;50.632;13.700;2023-09-18T03:21:41;6.40;;;4.05;;
75426;SDS011;64007;50.632;13.700;2023-09-18T03:24:07;8.45;;;4.07;;
75426;SDS011;64007;50.632;13.700;2023-09-18T03:26:33;4.22;;;3.30;;
75426;SDS011;64007;50.632;13.700;2023-09-18T03:28:58;7.95;;;4.00;;
75426;SDS011;64007;50.632;13.700;2023-09-18T03:31:24;8.20;;;3.75;;
75426;SDS011;64007;50.632;13.700;2023-09-18T03:33:50;4.70;;;3.38;;
75426;SDS011;64007;50.632;13.700;2023-09-18T03:36:16;6.85;;;3.65;;
75426;SDS011;64007;50.632;13.700;2023-09-18T03:38:42;6.35;;;3.30;;
75426;SDS011;64007;50.632;13.700;2023-09-18T03:41:07;5.55;;;3.70;;
75426;SDS011;64007;50.632;13.700;2023-09-18T03:43:33;7.20;;;3.88;;
75426;SDS011;64007;50.632;13.700;2023-09-18T03:46:05;8.95;;;3.95;;
75426;SDS011;64007;50.632;13.700;2023-09-18T03:48:31;5.32;;;3.50;;
75426;SDS011;64007;50.632;13.700;2023-09-18T03:51:03;5.35;;;3.83;;
75426;SDS011;64007;50.632;13.700;2023-09-18T03:53:29;5.38;;;4.00;;
75426;SDS011;64007;50.632;13.700;2023-09-18T03:55:55;8.10;;;3.80;;
75426;SDS011;64007;50.632;13.700;2023-09-18T03:58:21;4.75;;;3.70;;
75426;SDS011;64007;50.632;13.700;2023-09-18T04:00:47;6.97;;;3.58;;
75426;SDS011;64007;50.632;13.700;2023-09-18T04:03:12;5.70;;;3.67;;
75426;SDS011;64007;50.632;13.700;2023-09-18T04:05:39;5.18;;;3.50;;
75426;SDS011;64007;50.632;13.700;2023-09-18T04:08:04;6.28;;;3.75;;
75426;SDS011;64007;50.632;13.700;2023-09-18T04:10:30;5.22;;;3.60;;
75426;SDS011;64007;50.632;13.700;2023-09-18T04:12:56;11.00;;;4.38;;
75426;SDS011;64007;50.632;13.700;2023-09-18T04:15:22;5.13;;;3.83;;
75426;SDS011;64007;50.632;13.700;2023-09-18T04:17:48;4.45;;;3.30;;
75426;SDS011;64007;50.632;13.700;2023-09-18T04:20:14;8.25;;;4.22;;
75426;SDS011;64007;50.632;13.700;2023-09-18T04:22:46;4.18;;;3.30;;
75426;SDS011;64007;50.632;13.700;2023-09-18T04:25:16;7.30;;;4.05;;
75426;SDS011;64007;50.632;13.700;2023-09-18T04:27:41;6.18;;;3.70;;
75426;SDS011;64007;50.632;13.700;2023-09-18T04:30:08;5.60;;;3.70;;
75426;SDS011;64007;50.632;13.700;2023-09-18T04:32:36;8.68;;;3.67;;
75426;SDS011;64007;50.632;13.700;2023-09-18T04:35:03;4.13;;;3.25;;
75426;SDS011;64007;50.632;13.700;2023-09-18T04:37:30;8.02;;;3.53;;
75426;SDS011;64007;50.632;13.700;2023-09-18T04:39:57;5.22;;;4.07;;
75426;SDS011;64007;50.632;13.700;2023-09-18T04:42:23;7.68;;;3.65;;
75426;SDS011;64007;50.632;13.700;2023-09-18T04:44:49;9.43;;;3.97;;
75426;SDS011;64007;50.632;13.700;2023-09-18T04:47:14;6.32;;;3.45;;
75426;SDS011;64007;50.632;13.700;2023-09-18T04:49:40;4.90;;;3.60;;
75426;SDS011;64007;50.632;13.700;2023-09-18T04:52:06;4.85;;;3.90;;
75426;SDS011;64007;50.632;13.700;2023-09-18T04:54:32;6.65;;;3.50;;
75426;SDS011;64007;50.632;13.700;2023-09-18T04:56:57;8.93;;;3.63;;
75426;SDS011;64007;50.632;13.700;2023-09-18T04:59:23;5.38;;;4.07;;
75426;SDS011;64007;50.632;13.700;2023-09-18T05:01:48;6.70;;;3.90;;
75426;SDS011;64007;50.632;13.700;2023-09-18T05:04:14;6.30;;;4.28;;
75426;SDS011;64007;50.632;13.700;2023-09-18T05:06:40;5.88;;;4.05;;
75426;SDS011;64007;50.632;13.700;2023-09-18T05:09:07;5.30;;;4.15;;
75426;SDS011;64007;50.632;13.700;2023-09-18T05:11:33;7.55;;;4.18;;
75426;SDS011;64007;50.632;13.700;2023-09-18T05:13:59;5.82;;;4.20;;
75426;SDS011;64007;50.632;13.700;2023-09-18T05:16:25;5.50;;;4.38;;
75426;SDS011;64007;50.632;13.700;2023-09-18T05:18:51;6.93;;;4.35;;
75426;SDS011;64007;50.632;13.700;2023-09-18T05:21:16;8.30;;;4.40;;
75426;SDS011;64007;50.632;13.700;2023-09-18T05:23:47;17.00;;;4.38;;
75426;SDS011;64007;50.632;13.700;2023-09-18T05:26:13;7.32;;;4.38;;
75426;SDS011;64007;50.632;13.700;2023-09-18T05:28:39;9.43;;;4.40;;
75426;SDS011;64007;50.632;13.700;2023-09-18T05:31:04;5.18;;;4.22;;
75426;SDS011;64007;50.632;13.700;2023-09-18T05:33:30;6.47;;;4.50;;
75426;SDS011;64007;50.632;13.700;2023-09-18T05:35:56;6.18;;;4.38;;
75426;SDS011;64007;50.632;13.700;2023-09-18T05:38:22;9.90;;;4.63;;
75426;SDS011;64007;50.632;13.700;2023-09-18T05:40:47;5.78;;;4.30;;
75426;SDS011;64007;50.632;13.700;2023-09-18T05:43:13;9.23;;;4.40;;
75426;SDS011;64007;50.632;13.700;2023-09-18T05:45:39;7.32;;;4.80;;
75426;SDS011;64007;50.632;13.700;2023-09-18T05:48:05;7.18;;;5.03;;
75426;SDS011;64007;50.632;13.700;2023-09-18T05:50:32;9.32;;;5.47;;
75426;SDS011;64007;50.632;13.700;2023-09-18T05:53:00;6.50;;;4.72;;
75426;SDS011;64007;50.632;13.700;2023-09-18T05:55:29;6.68;;;4.97;;
75426;SDS011;64007;50.632;13.700;2023-09-18T05:58:04;9.13;;;5.00;;
75426;SDS011;64007;50.632;13.700;2023-09-18T06:00:32;6.45;;;4.70;;
75426;SDS011;64007;50.632;13.700;2023-09-18T06:02:58;6.57;;;4.82;;
75426;SDS011;64007;50.632;13.700;2023-09-18T06:05:24;7.00;;;4.88;;
75426;SDS011;64007;50.632;13.700;2023-09-18T06:07:50;5.82;;;4.75;;
75426;SDS011;64007;50.632;13.700;2023-09-18T06:10:16;8.50;;;5.18;;
75426;SDS011;64007;50.632;13.700;2023-09-18T06:12:43;8.85;;;5.07;;
75426;SDS011;64007;50.632;13.700;2023-09-18T06:15:09;6.10;;;4.60;;
75426;SDS011;64007;50.632;13.700;2023-09-18T06:17:37;6.90;;;4.95;;
75426;SDS011;64007;50.632;13.700;2023-09-18T06:20:04;12.52;;;5.10;;
75426;SDS011;64007;50.632;13.700;2023-09-18T06:22:31;7.05;;;4.65;;
75426;SDS011;64007;50.632;13.700;2023-09-18T06:24:56;10.52;;;4.95;;
75426;SDS011;64007;50.632;13.700;2023-09-18T06:27:22;7.88;;;5.20;;
75426;SDS011;64007;50.632;13.700;2023-09-18T06:29:48;8.27;;;5.15;;
75426;SDS011;64007;50.632;13.700;2023-09-18T06:32:14;9.25;;;5.32;;
75426;SDS011;64007;50.632;13.700;2023-09-18T06:34:39;7.38;;;5.28;;
75426;SDS011;64007;50.632;13.700;2023-09-18T06:37:09;8.90;;;5.07;;
75426;SDS011;64007;50.632;13.700;2023-09-18T06:39:37;14.70;;;6.15;;
75426;SDS011;64007;50.632;13.700;2023-09-18T06:42:04;8.27;;;5.60;;
75426;SDS011;64007;50.632;13.700;2023-09-18T06:44:30;7.93;;;5.68;;
75426;SDS011;64007;50.632;13.700;2023-09-18T06:46:55;7.43;;;5.90;;
75426;SDS011;64007;50.632;13.700;2023-09-18T06:49:21;7.75;;;5.20;;
75426;SDS011;64007;50.632;13.700;2023-09-18T06:51:47;8.80;;;5.60;;
75426;SDS011;64007;50.632;13.700;2023-09-18T06:54:13;9.52;;;6.10;;
75426;SDS011;64007;50.632;13.700;2023-09-18T06:56:39;11.18;;;5.43;;
75426;SDS011;64007;50.632;13.700;2023-09-18T06:59:06;11.52;;;6.03;;
75426;SDS011;64007;50.632;13.700;2023-09-18T07:01:32;7.78;;;5.63;;
75426;SDS011;64007;50.632;13.700;2023-09-18T07:03:58;9.23;;;6.18;;
75426;SDS011;64007;50.632;13.700;2023-09-18T07:06:25;6.97;;;5.30;;
75426;SDS011;64007;50.632;13.700;2023-09-18T07:08:51;14.88;;;5.97;;
75426;SDS011;64007;50.632;13.700;2023-09-18T07:11:17;8.00;;;5.80;;
75426;SDS011;64007;50.632;13.700;2023-09-18T07:13:43;8.05;;;5.50;;
75426;SDS011;64007;50.632;13.700;2023-09-18T07:16:09;6.88;;;5.60;;
75426;SDS011;64007;50.632;13.700;2023-09-18T07:18:35;10.15;;;5.72;;
75426;SDS011;64007;50.632;13.700;2023-09-18T07:21:01;10.75;;;6.38;;
75426;SDS011;64007;50.632;13.700;2023-09-18T07:23:27;8.77;;;5.57;;
75426;SDS011;64007;50.632;13.700;2023-09-18T07:25:53;8.82;;;5.20;;
75426;SDS011;64007;50.632;13.700;2023-09-18T07:28:19;9.80;;;5.65;;
75426;SDS011;64007;50.632;13.700;2023-09-18T07:30:45;7.50;;;5.30;;
75426;SDS011;64007;50.632;13.700;2023-09-18T07:33:12;12.38;;;5.90;;
75426;SDS011;64007;50.632;13.700;2023-09-18T07:35:41;7.85;;;5.80;;
75426;SDS011;64007;50.632;13.700;2023-09-18T07:38:07;7.97;;;4.97;;
75426;SDS011;64007;50.632;13.700;2023-09-18T07:40:33;7.32;;;5.20;;
75426;SDS011;64007;50.632;13.700;2023-09-18T07:42:59;9.02;;;4.97;;
75426;SDS011;64007;50.632;13.700;2023-09-18T07:45:25;10.43;;;5.40;;
75426;SDS011;64007;50.632;13.700;2023-09-18T07:47:50;7.65;;;5.40;;
75426;SDS011;64007;50.632;13.700;2023-09-18T07:50:16;6.28;;;5.10;;
75426;SDS011;64007;50.632;13.700;2023-09-18T07:52:43;9.05;;;5.47;;
75426;SDS011;64007;50.632;13.700;2023-09-18T07:55:09;7.97;;;5.55;;
75426;SDS011;64007;50.632;13.700;2023-09-18T07:57:35;15.93;;;5.72;;
75426;SDS011;64007;50.632;13.700;2023-09-18T08:00:03;7.40;;;5.00;;
75426;SDS011;64007;50.632;13.700;2023-09-18T08:02:36;8.02;;;5.25;;
75426;SDS011;64007;50.632;13.700;2023-09-18T08:05:03;7.95;;;5.32;;
75426;SDS011;64007;50.632;13.700;2023-09-18T08:07:30;9.15;;;5.50;;
75426;SDS011;64007;50.632;13.700;2023-09-18T08:09:56;16.23;;;5.80;;
75426;SDS011;64007;50.632;13.700;2023-09-18T08:12:23;9.40;;;5.60;;
75426;SDS011;64007;50.632;13.700;2023-09-18T08:14:52;7.75;;;5.78;;
75426;SDS011;64007;50.632;13.700;2023-09-18T08:17:18;7.80;;;5.18;;
75426;SDS011;64007;50.632;13.700;2023-09-18T08:19:43;11.38;;;5.75;;
75426;SDS011;64007;50.632;13.700;2023-09-18T08:22:15;13.60;;;6.30;;
75426;SDS011;64007;50.632;13.700;2023-09-18T08:24:42;11.82;;;6.38;;
75426;SDS011;64007;50.632;13.700;2023-09-18T08:27:08;10.25;;;5.97;;
75426;SDS011;64007;50.632;13.700;2023-09-18T08:29:33;7.45;;;5.80;;
75426;SDS011;64007;50.632;13.700;2023-09-18T08:31:59;14.63;;;5.50;;
75426;SDS011;64007;50.632;13.700;2023-09-18T08:34:25;7.45;;;5.82;;
75426;SDS011;64007;50.632;13.700;2023-09-18T08:36:51;9.25;;;5.80;;
75426;SDS011;64007;50.632;13.700;2023-09-18T08:39:17;15.05;;;5.75;;
75426;SDS011;64007;50.632;13.700;2023-09-18T08:41:43;9.70;;;5.03;;
75426;SDS011;64007;50.632;13.700;2023-09-18T08:44:10;8.77;;;5.80;;
75426;SDS011;64007;50.632;13.700;2023-09-18T08:46:36;7.65;;;5.60;;
75426;SDS011;64007;50.632;13.700;2023-09-18T08:49:02;8.25;;;5.47;;
75426;SDS011;64007;50.632;13.700;2023-09-18T08:51:30;9.50;;;5.50;;
75426;SDS011;64007;50.632;13.700;2023-09-18T08:53:56;8.75;;;6.13;;
75426;SDS011;64007;50.632;13.700;2023-09-18T08:56:22;8.60;;;5.63;;
75426;SDS011;64007;50.632;13.700;2023-09-18T08:58:48;8.68;;;5.35;;
75426;SDS011;64007;50.632;13.700;2023-09-18T09:01:15;11.98;;;5.28;;
75426;SDS011;64007;50.632;13.700;2023-09-18T09:03:41;6.97;;;5.47;;
75426;SDS011;64007;50.632;13.700;2023-09-18T09:06:08;8.45;;;5.95;;
75426;SDS011;64007;50.632;13.700;2023-09-18T09:08:35;9.20;;;5.53;;
75426;SDS011;64007;50.632;13.700;2023-09-18T09:11:02;9.02;;;5.47;;
75426;SDS011;64007;50.632;13.700;2023-09-18T09:13:28;10.02;;;5.72;;
75426;SDS011;64007;50.632;13.700;2023-09-18T09:15:55;11.93;;;6.43;;
75426;SDS011;64007;50.632;13.700;2023-09-18T09:18:23;8.88;;;5.45;;
75426;SDS011;64007;50.632;13.700;2023-09-18T09:20:59;6.68;;;5.03;;
75426;SDS011;64007;50.632;13.700;2023-09-18T09:23:27;8.00;;;5.20;;
75426;SDS011;64007;50.632;13.700;2023-09-18T09:25:54;13.20;;;5.70;;
75426;SDS011;64007;50.632;13.700;2023-09-18T09:28:37;7.78;;;5.25;;
75426;SDS011;64007;50.632;13.700;2023-09-18T09:31:03;9.10;;;5.10;;
75426;SDS011;64007;50.632;13.700;2023-09-18T09:33:29;7.78;;;4.88;;
75426;SDS011;64007;50.632;13.700;2023-09-18T09:35:55;5.97;;;4.90;;
75426;SDS011;64007;50.632;13.700;2023-09-18T09:38:28;9.48;;;5.10;;
75426;SDS011;64007;50.632;13.700;2023-09-18T09:40:57;8.13;;;5.05;;
75426;SDS011;64007;50.632;13.700;2023-09-18T09:43:25;7.45;;;4.95;;
75426;SDS011;64007;50.632;13.700;2023-09-18T09:45:56;8.25;;;4.07;;
75426;SDS011;64007;50.632;13.700;2023-09-18T09:48:26;7.47;;;4.03;;
75426;SDS011;64007;50.632;13.700;2023-09-18T09:50:52;9.55;;;4.20;;
75426;SDS011;64007;50.632;13.700;2023-09-18T09:56:13;5.28;;;4.03;;
75426;SDS011;64007;50.632;13.700;2023-09-18T09:58:40;8.73;;;4.72;;
75426;SDS011;64007;50.632;13.700;2023-09-18T10:01:11;11.05;;;4.53;;
75426;SDS011;64007;50.632;13.700;2023-09-18T10:03:44;6.93;;;4.90;;
75426;SDS011;64007;50.632;13.700;2023-09-18T10:06:10;7.47;;;4.55;;
75426;SDS011;64007;50.632;13.700;2023-09-18T10:08:40;9.65;;;4.78;;
75426;SDS011;64007;50.632;13.700;2023-09-18T10:11:07;6.90;;;4.22;;
75426;SDS011;64007;50.632;13.700;2023-09-18T10:13:40;7.80;;;4.05;;
75426;SDS011;64007;50.632;13.700;2023-09-18T10:16:16;13.27;;;4.93;;
75426;SDS011;64007;50.632;13.700;2023-09-18T10:21:31;6.10;;;3.90;;
75426;SDS011;64007;50.632;13.700;2023-09-18T10:24:25;22.77;;;5.40;;
75426;SDS011;64007;50.632;13.700;2023-09-18T10:26:56;12.45;;;4.43;;
75426;SDS011;64007;50.632;13.700;2023-09-18T10:29:26;7.82;;;4.53;;
75426;SDS011;64007;50.632;13.700;2023-09-18T10:31:55;13.00;;;4.43;;
75426;SDS011;64007;50.632;13.700;2023-09-18T10:34:22;10.82;;;4.80;;
75426;SDS011;64007;50.632;13.700;2023-09-18T10:36:50;10.70;;;4.80;;
75426;SDS011;64007;50.632;13.700;2023-09-18T10:39:16;11.25;;;4.72;;
75426;SDS011;64007;50.632;13.700;2023-09-18T10:44:28;9.82;;;4.57;;
75426;SDS011;64007;50.632;13.700;2023-09-18T10:46:54;13.68;;;4.32;;
75426;SDS011;64007;50.632;13.700;2023-09-18T10:49:21;12.45;;;4.47;;
75426;SDS011;64007;50.632;13.700;2023-09-18T10:51:47;10.10;;;4.53;;
75426;SDS011;64007;50.632;13.700;2023-09-18T10:54:20;11.90;;;4.50;;
75426;SDS011;64007;50.632;13.700;2023-09-18T10:56:46;12.73;;;4.60;;
75426;SDS011;64007;50.632;13.700;2023-09-18T10:59:13;9.05;;;4.28;;
75426;SDS011;64007;50.632;13.700;2023-09-18T11:01:40;15.40;;;4.85;;
75426;SDS011;64007;50.632;13.700;2023-09-18T11:04:06;11.15;;;4.72;;
75426;SDS011;64007;50.632;13.700;2023-09-18T11:09:46;11.63;;;4.70;;
75426;SDS011;64007;50.632;13.700;2023-09-18T11:12:14;10.63;;;4.25;;
75426;SDS011;64007;50.632;13.700;2023-09-18T11:17:33;24.98;;;4.78;;
75426;SDS011;64007;50.632;13.700;2023-09-18T11:20:04;24.40;;;4.50;;
75426;SDS011;64007;50.632;13.700;2023-09-18T11:22:37;16.77;;;4.55;;
75426;SDS011;64007;50.632;13.700;2023-09-18T11:25:34;12.60;;;4.32;;
75426;SDS011;64007;50.632;13.700;2023-09-18T11:28:00;12.68;;;4.28;;
75426;SDS011;64007;50.632;13.700;2023-09-18T11:30:28;15.13;;;4.30;;
75426;SDS011;64007;50.632;13.700;2023-09-18T11:32:55;13.85;;;4.07;;
75426;SDS011;64007;50.632;13.700;2023-09-18T11:35:21;12.10;;;3.80;;
75426;SDS011;64007;50.632;13.700;2023-09-18T11:37:47;14.43;;;3.90;;
75426;SDS011;64007;50.632;13.700;2023-09-18T11:40:31;16.75;;;3.58;;
75426;SDS011;64007;50.632;13.700;2023-09-18T11:43:25;9.18;;;3.97;;
75426;SDS011;64007;50.632;13.700;2023-09-18T11:45:53;8.27;;;3.42;;
75426;SDS011;64007;50.632;13.700;2023-09-18T11:48:21;8.85;;;4.10;;
75426;SDS011;64007;50.632;13.700;2023-09-18T11:50:49;14.13;;;4.03;;
75426;SDS011;64007;50.632;13.700;2023-09-18T11:53:17;8.13;;;3.75;;
75426;SDS011;64007;50.632;13.700;2023-09-18T11:55:44;13.27;;;3.80;;
75426;SDS011;64007;50.632;13.700;2023-09-18T11:58:10;7.45;;;3.50;;
75426;SDS011;64007;50.632;13.700;2023-09-18T12:00:36;10.23;;;3.67;;
75426;SDS011;64007;50.632;13.700;2023-09-18T12:03:23;10.63;;;3.85;;
75426;SDS011;64007;50.632;13.700;2023-09-18T12:05:59;8.77;;;3.53;;
75426;SDS011;64007;50.632;13.700;2023-09-18T12:08:28;11.23;;;3.53;;
75426;SDS011;64007;50.632;13.700;2023-09-18T12:10:56;12.80;;;3.88;;
75426;SDS011;64007;50.632;13.700;2023-09-18T12:13:25;10.48;;;3.53;;
75426;SDS011;64007;50.632;13.700;2023-09-18T12:15:56;9.57;;;3.53;;
75426;SDS011;64007;50.632;13.700;2023-09-18T12:18:24;11.73;;;3.40;;
75426;SDS011;64007;50.632;13.700;2023-09-18T12:20:50;8.40;;;3.47;;
75426;SDS011;64007;50.632;13.700;2023-09-18T12:23:16;11.48;;;4.20;;
75426;SDS011;64007;50.632;13.700;2023-09-18T12:25:49;11.65;;;3.50;;
75426;SDS011;64007;50.632;13.700;2023-09-18T12:28:16;8.68;;;3.55;;
75426;SDS011;64007;50.632;13.700;2023-09-18T12:30:43;8.85;;;3.13;;
75426;SDS011;64007;50.632;13.700;2023-09-18T12:33:11;10.32;;;3.40;;
75426;SDS011;64007;50.632;13.700;2023-09-18T12:35:41;13.68;;;3.72;;
75426;SDS011;64007;50.632;13.700;2023-09-18T12:38:13;7.38;;;3.03;;
75426;SDS011;64007;50.632;13.700;2023-09-18T12:40:50;10.30;;;3.50;;
75426;SDS011;64007;50.632;13.700;2023-09-18T12:43:15;5.25;;;2.90;;
75426;SDS011;64007;50.632;13.700;2023-09-18T12:45:42;5.40;;;3.33;;
75426;SDS011;64007;50.632;13.700;2023-09-18T12:48:09;9.20;;;3.40;;
75426;SDS011;64007;50.632;13.700;2023-09-18T12:50:35;5.93;;;3.55;;
75426;SDS011;64007;50.632;13.700;2023-09-18T12:53:08;8.00;;;3.15;;
75426;SDS011;64007;50.632;13.700;2023-09-18T12:55:37;9.40;;;3.20;;
75426;SDS011;64007;50.632;13.700;2023-09-18T12:58:04;7.65;;;3.45;;
75426;SDS011;64007;50.632;13.700;2023-09-18T13:00:33;11.95;;;3.20;;
75426;SDS011;64007;50.632;13.700;2023-09-18T13:03:04;12.98;;;4.00;;
75426;SDS011;64007;50.632;13.700;2023-09-18T13:05:31;8.15;;;3.45;;
75426;SDS011;64007;50.632;13.700;2023-09-18T13:08:03;5.80;;;3.33;;
75426;SDS011;64007;50.632;13.700;2023-09-18T13:10:47;7.93;;;3.30;;
75426;SDS011;64007;50.632;13.700;2023-09-18T13:13:23;12.93;;;3.20;;
75426;SDS011;64007;50.632;13.700;2023-09-18T13:15:51;6.20;;;3.35;;
75426;SDS011;64007;50.632;13.700;2023-09-18T13:18:16;5.05;;;3.30;;
75426;SDS011;64007;50.632;13.700;2023-09-18T13:20:43;8.95;;;3.38;;
75426;SDS011;64007;50.632;13.700;2023-09-18T13:23:09;4.47;;;3.22;;
75426;SDS011;64007;50.632;13.700;2023-09-18T13:25:36;4.60;;;3.38;;
75426;SDS011;64007;50.632;13.700;2023-09-18T13:28:08;8.60;;;3.30;;
75426;SDS011;64007;50.632;13.700;2023-09-18T13:30:38;5.57;;;3.30;;
75426;SDS011;64007;50.632;13.700;2023-09-18T13:33:06;3.75;;;3.05;;
75426;SDS011;64007;50.632;13.700;2023-09-18T13:35:34;7.20;;;3.45;;
75426;SDS011;64007;50.632;13.700;2023-09-18T13:38:01;9.75;;;3.50;;
75426;SDS011;64007;50.632;13.700;2023-09-18T13:40:30;5.43;;;3.22;;
75426;SDS011;64007;50.632;13.700;2023-09-18T13:42:58;4.40;;;3.15;;
75426;SDS011;64007;50.632;13.700;2023-09-18T13:45:24;8.75;;;3.38;;
75426;SDS011;64007;50.632;13.700;2023-09-18T13:47:50;5.03;;;3.08;;
75426;SDS011;64007;50.632;13.700;2023-09-18T13:50:16;9.80;;;3.65;;
75426;SDS011;64007;50.632;13.700;2023-09-18T13:52:42;6.35;;;3.50;;
75426;SDS011;64007;50.632;13.700;2023-09-18T13:55:07;5.82;;;3.40;;
75426;SDS011;64007;50.632;13.700;2023-09-18T13:57:35;4.25;;;3.22;;
75426;SDS011;64007;50.632;13.700;2023-09-18T14:00:02;6.88;;;3.47;;
75426;SDS011;64007;50.632;13.700;2023-09-18T14:02:32;8.40;;;3.58;;
75426;SDS011;64007;50.632;13.700;2023-09-18T14:04:58;6.20;;;3.85;;
75426;SDS011;64007;50.632;13.700;2023-09-18T14:07:24;7.07;;;3.97;;
75426;SDS011;64007;50.632;13.700;2023-09-18T14:09:50;5.72;;;3.45;;
75426;SDS011;64007;50.632;13.700;2023-09-18T14:12:16;4.93;;;3.42;;
75426;SDS011;64007;50.632;13.700;2023-09-18T14:14:42;6.28;;;3.78;;
75426;SDS011;64007;50.632;13.700;2023-09-18T14:17:08;5.22;;;3.40;;
75426;SDS011;64007;50.632;13.700;2023-09-18T14:19:35;11.00;;;3.55;;
75426;SDS011;64007;50.632;13.700;2023-09-18T14:22:05;7.22;;;3.55;;
75426;SDS011;64007;50.632;13.700;2023-09-18T14:24:31;6.75;;;3.90;;
75426;SDS011;64007;50.632;13.700;2023-09-18T14:27:03;10.75;;;3.67;;
75426;SDS011;64007;50.632;13.700;2023-09-18T14:29:29;7.22;;;4.00;;
75426;SDS011;64007;50.632;13.700;2023-09-18T14:32:01;8.60;;;4.18;;
75426;SDS011;64007;50.632;13.700;2023-09-18T14:34:28;9.30;;;4.07;;
75426;SDS011;64007;50.632;13.700;2023-09-18T14:36:55;9.73;;;3.72;;
75426;SDS011;64007;50.632;13.700;2023-09-18T14:39:22;3.90;;;3.15;;
75426;SDS011;64007;50.632;13.700;2023-09-18T14:41:47;9.13;;;3.60;;
75426;SDS011;64007;50.632;13.700;2023-09-18T14:44:14;4.90;;;3.60;;
75426;SDS011;64007;50.632;13.700;2023-09-18T14:46:40;8.18;;;3.35;;
75426;SDS011;64007;50.632;13.700;2023-09-18T14:49:06;8.57;;;3.58;;
75426;SDS011;64007;50.632;13.700;2023-09-18T14:51:35;5.05;;;3.20;;